sensor_id;sensor_type;location;lat;lon;timestamp;temperature;humidity
4356;DHT22;64374;51.482;7.408;2023-01-08T00:00:12;12.50;99.90
4356;DHT22;64374;51.482;7.408;2023-01-08T00:03:07;12.40;99.90
4356;DHT22;64374;51.482;7.408;2023-01-08T00:05:39;12.30;99.90
4356;DHT22;64374;51.482;7.408;2023-01-08T00:08:09;12.30;99.90
4356;DHT22;64374;51.482;7.408;2023-01-08T00:10:38;12.60;99.90
4356;DHT22;64374;51.482;7.408;2023-01-08T00:13:09;12.30;99.90
4356;DHT22;64374;51.482;7.408;2023-01-08T00:15:37;12.00;99.90
4356;DHT22;64374;51.482;7.408;2023-01-08T00:18:08;11.90;99.90
4356;DHT22;64374;51.482;7.408;2023-01-08T00:20:40;12.10;99.90
4356;DHT22;64374;51.482;7.408;2023-01-08T00:23:11;12.20;99.90
4356;DHT22;64374;51.482;7.408;2023-01-08T00:25:45;12.30;99.90
4356;DHT22;64374;51.482;7.408;2023-01-08T00:28:14;12.40;99.90
4356;DHT22;64374;51.482;7.408;2023-01-08T00:30:42;12.40;99.90
4356;DHT22;64374;51.482;7.408;2023-01-08T00:33:12;12.50;99.90
4356;DHT22;64374;51.482;7.408;2023-01-08T00:35:43;12.70;99.90
4356;DHT22;64374;51.482;7.408;2023-01-08T00:38:11;12.50;99.90
4356;DHT22;64374;51.482;7.408;2023-01-08T00:40:40;12.80;99.90
4356;DHT22;64374;51.482;7.408;2023-01-08T00:43:14;12.30;99.90
4356;DHT22;64374;51.482;7.408;2023-01-08T00:45:42;11.60;99.90
4356;DHT22;64374;51.482;7.408;2023-01-08T00:48:14;12.10;99.90
4356;DHT22;64374;51.482;7.408;2023-01-08T00:50:43;12.00;99.90
4356;DHT22;64374;51.482;7.408;2023-01-08T00:53:11;12.10;99.90
4356;DHT22;64374;51.482;7.408;2023-01-08T00:55:40;12.00;99.90
4356;DHT22;64374;51.482;7.408;2023-01-08T00:58:09;12.10;99.90
4356;DHT22;64374;51.482;7.408;2023-01-08T01:00:38;12.30;99.90
4356;DHT22;64374;51.482;7.408;2023-01-08T01:03:07;12.00;99.90
4356;DHT22;64374;51.482;7.408;2023-01-08T01:05:37;12.20;99.90
4356;DHT22;64374;51.482;7.408;2023-01-08T01:08:05;12.30;99.90
4356;DHT22;64374;51.482;7.408;2023-01-08T01:10:37;12.30;99.90
4356;DHT22;64374;51.482;7.408;2023-01-08T01:13:06;12.30;99.90
4356;DHT22;64374;51.482;7.408;2023-01-08T01:15:36;12.20;99.90
4356;DHT22;64374;51.482;7.408;2023-01-08T01:18:04;12.00;99.90
4356;DHT22;64374;51.482;7.408;2023-01-08T01:20:41;12.00;99.90
4356;DHT22;64374;51.482;7.408;2023-01-08T01:23:10;12.10;99.90
4356;DHT22;64374;51.482;7.408;2023-01-08T01:25:38;12.10;99.90
4356;DHT22;64374;51.482;7.408;2023-01-08T01:28:07;11.80;99.90
4356;DHT22;64374;51.482;7.408;2023-01-08T01:30:39;11.60;99.90
4356;DHT22;64374;51.482;7.408;2023-01-08T01:33:07;11.70;99.90
4356;DHT22;64374;51.482;7.408;2023-01-08T01:35:35;12.00;99.90
4356;DHT22;64374;51.482;7.408;2023-01-08T01:38:08;12.00;99.90
4356;DHT22;64374;51.482;7.408;2023-01-08T01:40:41;12.10;99.90
4356;DHT22;64374;51.482;7.408;2023-01-08T01:43:12;11.90;99.90
4356;DHT22;64374;51.482;7.408;2023-01-08T01:45:41;12.10;99.90
4356;DHT22;64374;51.482;7.408;2023-01-08T01:48:11;11.90;99.90
4356;DHT22;64374;51.482;7.408;2023-01-08T01:50:43;12.20;99.90
4356;DHT22;64374;51.482;7.408;2023-01-08T01:53:18;12.00;99.90
4356;DHT22;64374;51.482;7.408;2023-01-08T01:55:51;12.10;99.90
4356;DHT22;64374;51.482;7.408;2023-01-08T01:58:23;12.10;99.90
4356;DHT22;64374;51.482;7.408;2023-01-08T02:00:57;12.30;99.90
4356;DHT22;64374;51.482;7.408;2023-01-08T02:03:30;11.90;99.90
4356;DHT22;64374;51.482;7.408;2023-01-08T02:06:06;11.90;99.90
4356;DHT22;64374;51.482;7.408;2023-01-08T02:08:43;11.90;99.90
4356;DHT22;64374;51.482;7.408;2023-01-08T02:11:18;11.50;99.90
4356;DHT22;64374;51.482;7.408;2023-01-08T02:13:55;11.70;99.90
4356;DHT22;64374;51.482;7.408;2023-01-08T02:16:31;11.80;99.90
4356;DHT22;64374;51.482;7.408;2023-01-08T02:19:06;11.80;99.90
4356;DHT22;64374;51.482;7.408;2023-01-08T02:21:43;11.90;99.90
4356;DHT22;64374;51.482;7.408;2023-01-08T02:24:25;11.80;99.90
4356;DHT22;64374;51.482;7.408;2023-01-08T02:26:58;11.70;99.90
4356;DHT22;64374;51.482;7.408;2023-01-08T02:29:31;11.60;99.90
4356;DHT22;64374;51.482;7.408;2023-01-08T02:32:01;11.40;99.90
4356;DHT22;64374;51.482;7.408;2023-01-08T02:34:29;11.70;99.90
4356;DHT22;64374;51.482;7.408;2023-01-08T02:37:01;11.70;99.90
4356;DHT22;64374;51.482;7.408;2023-01-08T02:39:55;11.70;99.90
4356;DHT22;64374;51.482;7.408;2023-01-08T02:42:34;12.00;99.90
4356;DHT22;64374;51.482;7.408;2023-01-08T02:45:16;12.10;99.90
4356;DHT22;64374;51.482;7.408;2023-01-08T02:47:53;12.20;99.90
4356;DHT22;64374;51.482;7.408;2023-01-08T02:50:29;12.00;99.90
4356;DHT22;64374;51.482;7.408;2023-01-08T02:53:15;12.00;99.90
4356;DHT22;64374;51.482;7.408;2023-01-08T02:55:48;12.30;99.90
4356;DHT22;64374;51.482;7.408;2023-01-08T02:58:21;12.10;99.90
4356;DHT22;64374;51.482;7.408;2023-01-08T03:00:51;12.20;99.90
4356;DHT22;64374;51.482;7.408;2023-01-08T03:03:24;11.90;99.90
4356;DHT22;64374;51.482;7.408;2023-01-08T03:05:59;12.10;99.90
4356;DHT22;64374;51.482;7.408;2023-01-08T03:08:30;11.80;99.90
4356;DHT22;64374;51.482;7.408;2023-01-08T03:11:04;12.10;99.90
4356;DHT22;64374;51.482;7.408;2023-01-08T03:13:39;11.80;99.90
4356;DHT22;64374;51.482;7.408;2023-01-08T03:16:11;11.90;99.90
4356;DHT22;64374;51.482;7.408;2023-01-08T03:18:58;12.20;99.90
4356;DHT22;64374;51.482;7.408;2023-01-08T03:21:30;12.10;99.90
4356;DHT22;64374;51.482;7.408;2023-01-08T03:24:01;12.10;99.90
4356;DHT22;64374;51.482;7.408;2023-01-08T03:26:32;11.70;99.90
4356;DHT22;64374;51.482;7.408;2023-01-08T03:29:09;11.80;99.90
4356;DHT22;64374;51.482;7.408;2023-01-08T03:31:40;11.50;99.90
4356;DHT22;64374;51.482;7.408;2023-01-08T03:34:10;11.60;99.90
4356;DHT22;64374;51.482;7.408;2023-01-08T03:36:42;11.50;99.90
4356;DHT22;64374;51.482;7.408;2023-01-08T03:39:15;11.60;99.90
4356;DHT22;64374;51.482;7.408;2023-01-08T03:41:45;11.60;99.90
4356;DHT22;64374;51.482;7.408;2023-01-08T03:44:18;11.80;99.90
4356;DHT22;64374;51.482;7.408;2023-01-08T03:46:49;11.80;99.90
4356;DHT22;64374;51.482;7.408;2023-01-08T03:49:20;11.60;99.90
4356;DHT22;64374;51.482;7.408;2023-01-08T03:51:52;11.50;99.90
4356;DHT22;64374;51.482;7.408;2023-01-08T03:54:22;11.50;99.90
4356;DHT22;64374;51.482;7.408;2023-01-08T03:56:54;11.50;99.90
4356;DHT22;64374;51.482;7.408;2023-01-08T03:59:26;11.50;99.90
4356;DHT22;64374;51.482;7.408;2023-01-08T04:01:55;11.90;99.90
4356;DHT22;64374;51.482;7.408;2023-01-08T04:04:26;11.90;99.90
4356;DHT22;64374;51.482;7.408;2023-01-08T04:06:55;11.70;99.90
4356;DHT22;64374;51.482;7.408;2023-01-08T04:09:23;11.70;99.90
4356;DHT22;64374;51.482;7.408;2023-01-08T04:11:52;11.40;99.90
4356;DHT22;64374;51.482;7.408;2023-01-08T04:14:20;11.50;99.90
4356;DHT22;64374;51.482;7.408;2023-01-08T04:16:49;11.50;99.90
4356;DHT22;64374;51.482;7.408;2023-01-08T04:19:18;11.30;99.90
4356;DHT22;64374;51.482;7.408;2023-01-08T04:21:49;11.50;99.90
4356;DHT22;64374;51.482;7.408;2023-01-08T04:24:17;11.80;99.90
4356;DHT22;64374;51.482;7.408;2023-01-08T04:26:45;11.80;99.90
4356;DHT22;64374;51.482;7.408;2023-01-08T04:29:14;11.70;99.90
4356;DHT22;64374;51.482;7.408;2023-01-08T04:31:42;11.80;99.90
4356;DHT22;64374;51.482;7.408;2023-01-08T04:34:15;11.80;99.90
4356;DHT22;64374;51.482;7.408;2023-01-08T04:36:43;11.80;99.90
4356;DHT22;64374;51.482;7.408;2023-01-08T04:39:14;11.50;99.90
4356;DHT22;64374;51.482;7.408;2023-01-08T04:41:43;11.50;99.90
4356;DHT22;64374;51.482;7.408;2023-01-08T04:44:11;11.40;99.90
4356;DHT22;64374;51.482;7.408;2023-01-08T04:46:42;11.60;99.90
4356;DHT22;64374;51.482;7.408;2023-01-08T04:49:12;11.50;99.90
4356;DHT22;64374;51.482;7.408;2023-01-08T04:51:41;11.30;99.90
4356;DHT22;64374;51.482;7.408;2023-01-08T04:54:17;11.30;99.90
4356;DHT22;64374;51.482;7.408;2023-01-08T04:56:45;11.20;99.90
4356;DHT22;64374;51.482;7.408;2023-01-08T04:59:17;11.30;99.90
4356;DHT22;64374;51.482;7.408;2023-01-08T05:01:47;11.30;99.90
4356;DHT22;64374;51.482;7.408;2023-01-08T05:04:17;11.20;99.90
4356;DHT22;64374;51.482;7.408;2023-01-08T05:06:45;11.40;99.90
4356;DHT22;64374;51.482;7.408;2023-01-08T05:09:16;11.70;99.90
4356;DHT22;64374;51.482;7.408;2023-01-08T05:11:46;11.60;99.90
4356;DHT22;64374;51.482;7.408;2023-01-08T05:14:14;11.70;99.90
4356;DHT22;64374;51.482;7.408;2023-01-08T05:16:51;11.60;99.90
4356;DHT22;64374;51.482;7.408;2023-01-08T05:19:22;11.60;99.90
4356;DHT22;64374;51.482;7.408;2023-01-08T05:22:00;11.40;99.90
4356;DHT22;64374;51.482;7.408;2023-01-08T05:24:28;11.50;99.90
4356;DHT22;64374;51.482;7.408;2023-01-08T05:27:07;11.40;99.90
4356;DHT22;64374;51.482;7.408;2023-01-08T05:29:36;11.30;99.90
4356;DHT22;64374;51.482;7.408;2023-01-08T05:32:06;11.60;99.90
4356;DHT22;64374;51.482;7.408;2023-01-08T05:34:42;11.60;99.90
4356;DHT22;64374;51.482;7.408;2023-01-08T05:37:10;11.70;99.90
4356;DHT22;64374;51.482;7.408;2023-01-08T05:39:38;11.80;99.90
4356;DHT22;64374;51.482;7.408;2023-01-08T05:42:07;11.60;99.90
4356;DHT22;64374;51.482;7.408;2023-01-08T05:44:35;11.50;99.90
4356;DHT22;64374;51.482;7.408;2023-01-08T05:47:10;11.50;99.90
4356;DHT22;64374;51.482;7.408;2023-01-08T05:49:39;11.60;99.90
4356;DHT22;64374;51.482;7.408;2023-01-08T05:52:13;11.50;99.90
4356;DHT22;64374;51.482;7.408;2023-01-08T05:54:42;11.60;99.90
4356;DHT22;64374;51.482;7.408;2023-01-08T05:57:10;11.60;99.90
4356;DHT22;64374;51.482;7.408;2023-01-08T05:59:39;11.50;99.90
4356;DHT22;64374;51.482;7.408;2023-01-08T06:02:08;11.60;99.90
4356;DHT22;64374;51.482;7.408;2023-01-08T06:04:37;11.70;99.90
4356;DHT22;64374;51.482;7.408;2023-01-08T06:07:05;11.60;99.90
4356;DHT22;64374;51.482;7.408;2023-01-08T06:09:34;11.60;99.90
4356;DHT22;64374;51.482;7.408;2023-01-08T06:12:06;11.40;99.90
4356;DHT22;64374;51.482;7.408;2023-01-08T06:14:37;11.70;99.90
4356;DHT22;64374;51.482;7.408;2023-01-08T06:17:06;11.70;99.90
4356;DHT22;64374;51.482;7.408;2023-01-08T06:19:37;11.60;99.90
4356;DHT22;64374;51.482;7.408;2023-01-08T06:22:06;11.60;99.90
4356;DHT22;64374;51.482;7.408;2023-01-08T06:24:36;11.70;99.90
4356;DHT22;64374;51.482;7.408;2023-01-08T06:27:05;11.70;99.90
4356;DHT22;64374;51.482;7.408;2023-01-08T06:29:33;11.50;99.90
4356;DHT22;64374;51.482;7.408;2023-01-08T06:32:14;11.60;99.90
4356;DHT22;64374;51.482;7.408;2023-01-08T06:34:42;11.40;99.90
4356;DHT22;64374;51.482;7.408;2023-01-08T06:37:10;11.50;99.90
4356;DHT22;64374;51.482;7.408;2023-01-08T06:39:40;11.50;99.90
4356;DHT22;64374;51.482;7.408;2023-01-08T06:42:13;11.30;99.90
4356;DHT22;64374;51.482;7.408;2023-01-08T06:44:41;11.30;99.90
4356;DHT22;64374;51.482;7.408;2023-01-08T06:47:10;11.50;99.90
4356;DHT22;64374;51.482;7.408;2023-01-08T06:49:41;11.50;99.90
4356;DHT22;64374;51.482;7.408;2023-01-08T06:52:12;11.50;99.90
4356;DHT22;64374;51.482;7.408;2023-01-08T06:54:41;11.30;99.90
4356;DHT22;64374;51.482;7.408;2023-01-08T06:57:12;11.20;99.90
4356;DHT22;64374;51.482;7.408;2023-01-08T06:59:40;11.20;99.90
4356;DHT22;64374;51.482;7.408;2023-01-08T07:02:12;11.10;99.90
4356;DHT22;64374;51.482;7.408;2023-01-08T07:04:41;11.00;99.90
4356;DHT22;64374;51.482;7.408;2023-01-08T07:07:24;11.10;99.90
4356;DHT22;64374;51.482;7.408;2023-01-08T07:09:53;11.20;99.90
4356;DHT22;64374;51.482;7.408;2023-01-08T07:12:24;11.30;99.90
4356;DHT22;64374;51.482;7.408;2023-01-08T07:14:53;11.30;99.90
4356;DHT22;64374;51.482;7.408;2023-01-08T07:17:23;11.30;99.90
4356;DHT22;64374;51.482;7.408;2023-01-08T07:19:54;11.40;99.90
4356;DHT22;64374;51.482;7.408;2023-01-08T07:22:26;11.60;99.90
4356;DHT22;64374;51.482;7.408;2023-01-08T07:24:55;11.40;99.90
4356;DHT22;64374;51.482;7.408;2023-01-08T07:27:24;11.50;99.90
4356;DHT22;64374;51.482;7.408;2023-01-08T07:29:52;11.50;99.90
4356;DHT22;64374;51.482;7.408;2023-01-08T07:32:22;11.70;99.90
4356;DHT22;64374;51.482;7.408;2023-01-08T07:34:52;11.50;99.90
4356;DHT22;64374;51.482;7.408;2023-01-08T07:37:27;11.80;99.90
4356;DHT22;64374;51.482;7.408;2023-01-08T07:39:59;11.30;99.90
4356;DHT22;64374;51.482;7.408;2023-01-08T07:42:28;11.50;99.90
4356;DHT22;64374;51.482;7.408;2023-01-08T07:44:56;11.50;99.90
4356;DHT22;64374;51.482;7.408;2023-01-08T07:47:26;11.40;99.90
4356;DHT22;64374;51.482;7.408;2023-01-08T07:49:54;11.00;99.90
4356;DHT22;64374;51.482;7.408;2023-01-08T07:52:23;11.00;99.90
4356;DHT22;64374;51.482;7.408;2023-01-08T07:54:51;11.00;99.90
4356;DHT22;64374;51.482;7.408;2023-01-08T07:57:22;10.80;99.90
4356;DHT22;64374;51.482;7.408;2023-01-08T07:59:58;11.00;99.90
4356;DHT22;64374;51.482;7.408;2023-01-08T08:02:27;11.20;99.90
4356;DHT22;64374;51.482;7.408;2023-01-08T08:04:56;11.30;99.90
4356;DHT22;64374;51.482;7.408;2023-01-08T08:07:29;11.30;99.90
4356;DHT22;64374;51.482;7.408;2023-01-08T08:09:58;11.20;99.90
4356;DHT22;64374;51.482;7.408;2023-01-08T08:12:31;10.80;99.90
4356;DHT22;64374;51.482;7.408;2023-01-08T08:14:59;10.70;99.90
4356;DHT22;64374;51.482;7.408;2023-01-08T08:17:27;10.90;99.90
4356;DHT22;64374;51.482;7.408;2023-01-08T08:19:56;11.10;99.90
4356;DHT22;64374;51.482;7.408;2023-01-08T08:22:24;11.10;99.90
4356;DHT22;64374;51.482;7.408;2023-01-08T08:24:53;11.20;99.90
4356;DHT22;64374;51.482;7.408;2023-01-08T08:27:22;11.20;99.90
4356;DHT22;64374;51.482;7.408;2023-01-08T08:30:00;11.30;99.90
4356;DHT22;64374;51.482;7.408;2023-01-08T08:32:28;11.50;99.90
4356;DHT22;64374;51.482;7.408;2023-01-08T08:34:57;11.10;99.90
4356;DHT22;64374;51.482;7.408;2023-01-08T08:37:25;11.10;99.90
4356;DHT22;64374;51.482;7.408;2023-01-08T08:39:56;11.20;99.90
4356;DHT22;64374;51.482;7.408;2023-01-08T08:42:25;11.50;99.90
4356;DHT22;64374;51.482;7.408;2023-01-08T08:44:55;11.30;99.90
4356;DHT22;64374;51.482;7.408;2023-01-08T08:47:23;11.40;99.90
4356;DHT22;64374;51.482;7.408;2023-01-08T08:49:54;11.70;99.90
4356;DHT22;64374;51.482;7.408;2023-01-08T08:52:22;11.70;99.90
4356;DHT22;64374;51.482;7.408;2023-01-08T08:54:50;11.90;99.90
4356;DHT22;64374;51.482;7.408;2023-01-08T08:57:21;11.70;99.90
4356;DHT22;64374;51.482;7.408;2023-01-08T08:59:50;11.80;99.90
4356;DHT22;64374;51.482;7.408;2023-01-08T09:02:24;11.50;99.90
4356;DHT22;64374;51.482;7.408;2023-01-08T09:04:53;11.50;99.90
4356;DHT22;64374;51.482;7.408;2023-01-08T09:07:21;11.40;99.90
4356;DHT22;64374;51.482;7.408;2023-01-08T09:09:50;11.60;99.90
4356;DHT22;64374;51.482;7.408;2023-01-08T09:12:18;11.40;99.90
4356;DHT22;64374;51.482;7.408;2023-01-08T09:14:46;11.30;99.90
4356;DHT22;64374;51.482;7.408;2023-01-08T09:17:17;11.40;99.90
4356;DHT22;64374;51.482;7.408;2023-01-08T09:20:01;11.50;99.90
4356;DHT22;64374;51.482;7.408;2023-01-08T09:22:30;11.60;99.90
4356;DHT22;64374;51.482;7.408;2023-01-08T09:25:01;11.80;99.90
4356;DHT22;64374;51.482;7.408;2023-01-08T09:27:32;11.50;99.90
4356;DHT22;64374;51.482;7.408;2023-01-08T09:30:09;11.50;99.90
4356;DHT22;64374;51.482;7.408;2023-01-08T09:32:37;11.60;99.90
4356;DHT22;64374;51.482;7.408;2023-01-08T09:35:08;11.70;99.90
4356;DHT22;64374;51.482;7.408;2023-01-08T09:37:39;11.60;99.90
4356;DHT22;64374;51.482;7.408;2023-01-08T09:40:09;11.50;99.90
4356;DHT22;64374;51.482;7.408;2023-01-08T09:42:42;11.60;99.90
4356;DHT22;64374;51.482;7.408;2023-01-08T09:45:16;11.50;99.90
4356;DHT22;64374;51.482;7.408;2023-01-08T09:47:47;11.70;99.90
4356;DHT22;64374;51.482;7.408;2023-01-08T09:50:16;11.90;99.90
4356;DHT22;64374;51.482;7.408;2023-01-08T09:52:45;11.90;99.90
4356;DHT22;64374;51.482;7.408;2023-01-08T09:55:14;12.00;99.90
4356;DHT22;64374;51.482;7.408;2023-01-08T09:57:43;12.20;99.90
4356;DHT22;64374;51.482;7.408;2023-01-08T10:00:14;12.20;99.90
4356;DHT22;64374;51.482;7.408;2023-01-08T10:02:45;12.10;99.90
4356;DHT22;64374;51.482;7.408;2023-01-08T10:05:17;12.30;99.90
4356;DHT22;64374;51.482;7.408;2023-01-08T10:07:45;12.40;99.90
4356;DHT22;64374;51.482;7.408;2023-01-08T10:10:19;12.30;99.90
4356;DHT22;64374;51.482;7.408;2023-01-08T10:12:48;12.30;99.90
4356;DHT22;64374;51.482;7.408;2023-01-08T10:15:19;12.20;99.90
4356;DHT22;64374;51.482;7.408;2023-01-08T10:17:50;12.00;99.90
4356;DHT22;64374;51.482;7.408;2023-01-08T10:20:28;11.90;99.90
4356;DHT22;64374;51.482;7.408;2023-01-08T10:23:08;11.90;99.90
4356;DHT22;64374;51.482;7.408;2023-01-08T10:25:49;12.20;99.90
4356;DHT22;64374;51.482;7.408;2023-01-08T10:28:21;12.30;99.90
4356;DHT22;64374;51.482;7.408;2023-01-08T10:30:53;12.30;99.90
4356;DHT22;64374;51.482;7.408;2023-01-08T10:33:24;12.30;99.90
4356;DHT22;64374;51.482;7.408;2023-01-08T10:36:00;12.50;99.90
4356;DHT22;64374;51.482;7.408;2023-01-08T10:38:31;12.30;99.90
4356;DHT22;64374;51.482;7.408;2023-01-08T10:41:02;12.20;99.90
4356;DHT22;64374;51.482;7.408;2023-01-08T10:43:36;12.20;99.90
4356;DHT22;64374;51.482;7.408;2023-01-08T10:46:16;12.00;99.90
4356;DHT22;64374;51.482;7.408;2023-01-08T10:48:51;11.90;99.90
4356;DHT22;64374;51.482;7.408;2023-01-08T10:51:42;12.10;99.90
4356;DHT22;64374;51.482;7.408;2023-01-08T10:54:28;12.10;99.90
4356;DHT22;64374;51.482;7.408;2023-01-08T10:57:01;12.40;99.90
4356;DHT22;64374;51.482;7.408;2023-01-08T10:59:35;12.20;99.90
4356;DHT22;64374;51.482;7.408;2023-01-08T11:02:29;12.30;99.90
4356;DHT22;64374;51.482;7.408;2023-01-08T11:05:06;12.50;99.90
4356;DHT22;64374;51.482;7.408;2023-01-08T11:07:39;12.10;99.90
4356;DHT22;64374;51.482;7.408;2023-01-08T11:10:21;12.00;99.90
4356;DHT22;64374;51.482;7.408;2023-01-08T11:12:59;12.00;99.90
4356;DHT22;64374;51.482;7.408;2023-01-08T11:15:33;12.00;99.90
4356;DHT22;64374;51.482;7.408;2023-01-08T11:18:15;12.00;99.90
4356;DHT22;64374;51.482;7.408;2023-01-08T11:20:45;12.00;99.90
4356;DHT22;64374;51.482;7.408;2023-01-08T11:23:17;11.90;99.90
4356;DHT22;64374;51.482;7.408;2023-01-08T11:25:55;12.00;99.90
4356;DHT22;64374;51.482;7.408;2023-01-08T11:28:30;12.10;99.90
4356;DHT22;64374;51.482;7.408;2023-01-08T11:31:10;12.00;99.90
4356;DHT22;64374;51.482;7.408;2023-01-08T11:33:44;12.40;99.90
4356;DHT22;64374;51.482;7.408;2023-01-08T11:36:22;12.40;99.90
4356;DHT22;64374;51.482;7.408;2023-01-08T11:38:55;12.60;99.90
4356;DHT22;64374;51.482;7.408;2023-01-08T11:41:36;12.60;99.90
4356;DHT22;64374;51.482;7.408;2023-01-08T11:44:19;12.70;99.90
4356;DHT22;64374;51.482;7.408;2023-01-08T11:46:55;12.40;99.90
4356;DHT22;64374;51.482;7.408;2023-01-08T11:49:53;12.30;99.90
4356;DHT22;64374;51.482;7.408;2023-01-08T11:52:40;12.60;99.90
4356;DHT22;64374;51.482;7.408;2023-01-08T11:58:32;12.50;99.90
4356;DHT22;64374;51.482;7.408;2023-01-08T12:01:15;12.50;99.90
4356;DHT22;64374;51.482;7.408;2023-01-08T12:03:49;12.50;99.90
4356;DHT22;64374;51.482;7.408;2023-01-08T12:06:27;12.50;99.90
4356;DHT22;64374;51.482;7.408;2023-01-08T12:09:09;12.50;99.90
4356;DHT22;64374;51.482;7.408;2023-01-08T12:11:52;12.70;99.90
4356;DHT22;64374;51.482;7.408;2023-01-08T12:14:31;12.10;99.90
4356;DHT22;64374;51.482;7.408;2023-01-08T12:17:16;12.20;99.90
4356;DHT22;64374;51.482;7.408;2023-01-08T12:19:57;12.30;99.90
4356;DHT22;64374;51.482;7.408;2023-01-08T12:22:41;12.10;99.90
4356;DHT22;64374;51.482;7.408;2023-01-08T12:25:24;12.10;99.90
4356;DHT22;64374;51.482;7.408;2023-01-08T12:28:08;12.10;99.90
4356;DHT22;64374;51.482;7.408;2023-01-08T12:31:06;12.30;99.90
4356;DHT22;64374;51.482;7.408;2023-01-08T12:33:40;12.40;99.90
4356;DHT22;64374;51.482;7.408;2023-01-08T12:36:15;12.50;99.90
4356;DHT22;64374;51.482;7.408;2023-01-08T12:38:51;12.70;99.90
4356;DHT22;64374;51.482;7.408;2023-01-08T12:41:22;12.50;99.90
4356;DHT22;64374;51.482;7.408;2023-01-08T12:43:56;12.70;99.90
4356;DHT22;64374;51.482;7.408;2023-01-08T12:46:28;13.30;99.90
4356;DHT22;64374;51.482;7.408;2023-01-08T12:48:58;13.80;99.90
4356;DHT22;64374;51.482;7.408;2023-01-08T12:51:32;14.40;99.90
4356;DHT22;64374;51.482;7.408;2023-01-08T12:54:09;14.50;99.90
4356;DHT22;64374;51.482;7.408;2023-01-08T12:56:49;14.80;99.90
4356;DHT22;64374;51.482;7.408;2023-01-08T12:59:29;15.20;99.90
4356;DHT22;64374;51.482;7.408;2023-01-08T13:02:04;15.70;99.90
4356;DHT22;64374;51.482;7.408;2023-01-08T13:04:41;16.20;99.90
4356;DHT22;64374;51.482;7.408;2023-01-08T13:07:15;16.40;99.90
4356;DHT22;64374;51.482;7.408;2023-01-08T13:09:53;16.50;99.90
4356;DHT22;64374;51.482;7.408;2023-01-08T13:12:31;16.90;99.90
4356;DHT22;64374;51.482;7.408;2023-01-08T13:15:07;16.90;99.90
4356;DHT22;64374;51.482;7.408;2023-01-08T13:17:36;16.20;99.90
4356;DHT22;64374;51.482;7.408;2023-01-08T13:20:06;16.00;99.90
4356;DHT22;64374;51.482;7.408;2023-01-08T13:22:39;16.00;99.90
4356;DHT22;64374;51.482;7.408;2023-01-08T13:25:32;16.60;99.90
4356;DHT22;64374;51.482;7.408;2023-01-08T13:28:17;17.20;99.90
4356;DHT22;64374;51.482;7.408;2023-01-08T13:31:08;17.10;99.90
4356;DHT22;64374;51.482;7.408;2023-01-08T13:33:45;16.70;99.90
4356;DHT22;64374;51.482;7.408;2023-01-08T13:36:18;16.10;99.90
4356;DHT22;64374;51.482;7.408;2023-01-08T13:39:00;16.30;99.90
4356;DHT22;64374;51.482;7.408;2023-01-08T13:41:30;15.80;99.90
4356;DHT22;64374;51.482;7.408;2023-01-08T13:44:01;15.50;99.90
4356;DHT22;64374;51.482;7.408;2023-01-08T13:46:36;15.10;99.90
4356;DHT22;64374;51.482;7.408;2023-01-08T13:49:09;15.10;99.90
4356;DHT22;64374;51.482;7.408;2023-01-08T13:51:47;14.80;99.90
4356;DHT22;64374;51.482;7.408;2023-01-08T13:54:21;14.70;99.90
4356;DHT22;64374;51.482;7.408;2023-01-08T13:56:54;14.90;99.90
4356;DHT22;64374;51.482;7.408;2023-01-08T13:59:39;14.60;99.90
4356;DHT22;64374;51.482;7.408;2023-01-08T14:02:30;13.60;99.90
4356;DHT22;64374;51.482;7.408;2023-01-08T14:05:10;13.10;99.90
4356;DHT22;64374;51.482;7.408;2023-01-08T14:07:38;13.10;99.90
4356;DHT22;64374;51.482;7.408;2023-01-08T14:10:12;13.00;99.90
4356;DHT22;64374;51.482;7.408;2023-01-08T14:12:40;12.90;99.90
4356;DHT22;64374;51.482;7.408;2023-01-08T14:15:16;12.80;99.90
4356;DHT22;64374;51.482;7.408;2023-01-08T14:17:46;13.10;99.90
4356;DHT22;64374;51.482;7.408;2023-01-08T14:20:30;12.80;99.90
4356;DHT22;64374;51.482;7.408;2023-01-08T14:23:00;13.20;99.90
4356;DHT22;64374;51.482;7.408;2023-01-08T14:25:29;13.20;99.90
4356;DHT22;64374;51.482;7.408;2023-01-08T14:28:00;13.60;99.90
4356;DHT22;64374;51.482;7.408;2023-01-08T14:30:31;13.40;99.90
4356;DHT22;64374;51.482;7.408;2023-01-08T14:33:01;13.00;99.90
4356;DHT22;64374;51.482;7.408;2023-01-08T14:35:33;13.00;99.90
4356;DHT22;64374;51.482;7.408;2023-01-08T14:38:02;12.80;99.90
4356;DHT22;64374;51.482;7.408;2023-01-08T14:40:36;12.90;99.90
4356;DHT22;64374;51.482;7.408;2023-01-08T14:43:08;13.00;99.90
4356;DHT22;64374;51.482;7.408;2023-01-08T14:45:44;13.30;99.90
4356;DHT22;64374;51.482;7.408;2023-01-08T14:48:21;13.50;99.90
4356;DHT22;64374;51.482;7.408;2023-01-08T14:51:12;13.50;99.90
4356;DHT22;64374;51.482;7.408;2023-01-08T14:53:44;13.50;99.90
4356;DHT22;64374;51.482;7.408;2023-01-08T14:56:18;13.50;99.90
4356;DHT22;64374;51.482;7.408;2023-01-08T14:58:48;13.10;99.90
4356;DHT22;64374;51.482;7.408;2023-01-08T15:01:20;12.90;99.90
4356;DHT22;64374;51.482;7.408;2023-01-08T15:04:04;13.10;99.90
4356;DHT22;64374;51.482;7.408;2023-01-08T15:06:33;13.20;99.90
4356;DHT22;64374;51.482;7.408;2023-01-08T15:09:01;12.90;99.90
4356;DHT22;64374;51.482;7.408;2023-01-08T15:11:30;12.60;99.90
4356;DHT22;64374;51.482;7.408;2023-01-08T15:13:58;12.70;99.90
4356;DHT22;64374;51.482;7.408;2023-01-08T15:16:29;12.70;99.90
4356;DHT22;64374;51.482;7.408;2023-01-08T15:19:05;12.70;99.90
4356;DHT22;64374;51.482;7.408;2023-01-08T15:21:34;12.60;99.90
4356;DHT22;64374;51.482;7.408;2023-01-08T15:24:04;12.60;99.90
4356;DHT22;64374;51.482;7.408;2023-01-08T15:26:33;12.60;99.90
4356;DHT22;64374;51.482;7.408;2023-01-08T15:29:04;12.30;99.90
4356;DHT22;64374;51.482;7.408;2023-01-08T15:31:44;12.50;99.90
4356;DHT22;64374;51.482;7.408;2023-01-08T15:34:17;12.50;99.90
4356;DHT22;64374;51.482;7.408;2023-01-08T15:36:46;12.50;99.90
4356;DHT22;64374;51.482;7.408;2023-01-08T15:39:16;12.10;99.90
4356;DHT22;64374;51.482;7.408;2023-01-08T15:41:44;11.90;99.90
4356;DHT22;64374;51.482;7.408;2023-01-08T15:44:30;11.90;99.90
4356;DHT22;64374;51.482;7.408;2023-01-08T15:47:00;11.70;99.90
4356;DHT22;64374;51.482;7.408;2023-01-08T15:49:31;11.50;99.90
4356;DHT22;64374;51.482;7.408;2023-01-08T15:52:15;11.60;99.90
4356;DHT22;64374;51.482;7.408;2023-01-08T15:54:48;11.60;99.90
4356;DHT22;64374;51.482;7.408;2023-01-08T15:57:17;12.00;99.90
4356;DHT22;64374;51.482;7.408;2023-01-08T15:59:49;12.10;99.90
4356;DHT22;64374;51.482;7.408;2023-01-08T16:02:20;11.90;99.90
4356;DHT22;64374;51.482;7.408;2023-01-08T16:04:52;12.00;99.90
4356;DHT22;64374;51.482;7.408;2023-01-08T16:07:22;11.90;99.90
4356;DHT22;64374;51.482;7.408;2023-01-08T16:09:51;11.80;99.90
4356;DHT22;64374;51.482;7.408;2023-01-08T16:12:19;12.10;99.90
4356;DHT22;64374;51.482;7.408;2023-01-08T16:14:48;12.40;99.90
4356;DHT22;64374;51.482;7.408;2023-01-08T16:17:16;12.20;99.90
4356;DHT22;64374;51.482;7.408;2023-01-08T16:19:45;12.00;99.90
4356;DHT22;64374;51.482;7.408;2023-01-08T16:22:17;12.00;99.90